Meteo Giornale » Osservazioni meteo Stati Uniti (USA) » Texarkana Reg-Webb Fld
ore: 09:53 - Osservazioni Meteo Texarkana Reg-Webb Fld
Lat. 33° 27' N Lon. 93° 59' W Alt. 118 metri s.l.m.
31 °C
Sereno
Temp. 24 Ore
23 °C
37 °C
Nord
0 Km/h
Dew point 22 °C
Umidità 58 %
Visibilità 10 Km
Il sole sorge alle ore 06:50
Il sole tramonta alle ore 19:41
| Data e Ora | Cielo e Fenomeni | T °C | DP °C | Um. % | Pres. hPa | Vis. km | Vento km/h | |
|---|---|---|---|---|---|---|---|---|
| Oggi h: 09:53 | Sereno | 31 | 22 | 58 | 1018 | 10 | N 0 | |
| Oggi h: 08:53 | Sereno | 29 | 23 | 70 | 1018 | 10 | N 0 | |
| Oggi h: 07:53 | Sereno | 26 | 22 | 78 | 1018 | 10 | N 0 | |
| Oggi h: 06:53 | Sereno | 23 | 22 | 94 | 1017 | 10 | N 0 | |
| Oggi h: 05:53 | Sereno | 26 | 21 | 73 | 1017 | 10 | S 7.4 | |
| Oggi h: 04:53 | Sereno | 27 | 21 | 69 | 1017 | 10 | N 5.5 | |
| Oggi h: 03:53 | Sereno | 28 | 21 | 65 | 1017 | 10 | S 11.1 | |
| Oggi h: 02:53 | Sereno | 27 | 21 | 69 | 1017 | 10 | SE 9.3 | |
| Oggi h: 01:53 | Sereno | 28 | 21 | 65 | 1016 | 10 | SE 13 | |
| Oggi h: 00:53 | Sereno | 27 | 21 | 69 | 1016 | 10 | SE 11.1 | |
| Ieri h: 23:53 | Sereno | 28 | 21 | 65 | 1016 | 10 | SE 11.1 | |
| Ieri h: 22:53 | Sereno | 29 | 21 | 62 | 1016 | 10 | SE 13 | |
| Ieri h: 21:53 | Sereno | 29 | 21 | 62 | 1015 | 10 | SE 11.1 | |
| Ieri h: 20:53 | Sereno | 29 | 21 | 62 | 1015 | 10 | SE 11.1 | |
| Ieri h: 19:53 | Sereno | 31 | 20 | 52 | 1015 | 10 | S/SE 7.4 | |
| Ieri h: 18:53 | Sereno | 34 | 19 | 41 | 1014 | 10 | SE 13 | |
| Ieri h: 17:53 | Sereno | 36 | 17 | 32 | 1015 | 10 | S 9.3 | |
| Ieri h: 16:53 | Sereno | 36 | 16 | 30 | 1015 | 10 | SE 13 | |
| Ieri h: 15:53 | Sereno | 37 | 19 | 35 | 1015 | 10 | SE 14.8 | |
| Ieri h: 14:53 | Poco Nuvoloso | 36 | 19 | 36 | 1016 | 10 | S 7.4 | |
| Ieri h: 13:53 | Sereno | 36 | 19 | 36 | 1017 | 10 | N 5.5 | |
| Ieri h: 12:53 | Sereno | 35 | 19 | 39 | 1017 | 10 | N 0 | |
| Ieri h: 11:53 | Sereno | 33 | 19 | 43 | 1018 | 10 | N 0 | |
| Ieri h: 10:53 | Nuvoloso | 33 | 20 | 46 | 1018 | 10 | SO 9.3 | |



